Time;durP1;ratioP1;P1;durP2;ratioP2;P2;SDS_P1;SDS_P2;PMS_P1;PMS_P2;Temp;Humidity;BMP_temperature;BMP_pressure;BME280_temperature;BME280_humidity;BME280_pressure;Samples;Min_cycle;Max_cycle;Signal;HPM_P1;HPM_P2
2024/04/09 00:00:44;;;;;;;15.38;7.75;;;18.80;94.90;;;;;;5374050;26;20004;-74
2024/04/09 00:03:10;;;;;;;13.77;7.57;;;18.80;95.00;;;;;;5373201;26;20016;-73
2024/04/09 00:05:39;;;;;;;12.95;7.63;;;18.80;94.90;;;;;;5376220;26;20019;-74
2024/04/09 00:08:10;;;;;;;13.30;7.55;;;18.70;94.80;;;;;;5371793;26;20007;-74
2024/04/09 00:10:40;;;;;;;12.45;7.82;;;18.80;94.90;;;;;;5372916;26;20019;-74
2024/04/09 00:13:06;;;;;;;13.07;7.05;;;18.80;94.90;;;;;;5352647;26;20004;-74
2024/04/09 00:15:33;;;;;;;17.52;7.85;;;18.80;94.90;;;;;;5374022;26;20000;-73
2024/04/09 00:18:12;;;;;;;17.00;7.57;;;18.70;95.00;;;;;;5342434;26;20011;-74
2024/04/09 00:20:42;;;;;;;15.80;8.48;;;18.60;95.00;;;;;;5363881;26;20019;-74
2024/04/09 00:23:09;;;;;;;14.25;8.10;;;18.60;95.00;;;;;;5375391;26;20011;-74
2024/04/09 00:25:37;;;;;;;16.98;8.10;;;18.60;95.10;;;;;;5352725;26;20001;-74
2024/04/09 00:28:03;;;;;;;18.35;8.35;;;18.60;95.10;;;;;;5372444;26;20077;-74
2024/04/09 00:30:29;;;;;;;19.02;8.88;;;18.50;95.20;;;;;;5372883;26;20000;-75
2024/04/09 00:32:55;;;;;;;14.32;7.85;;;18.40;95.20;;;;;;5361332;26;20001;-74
2024/04/09 00:35:21;;;;;;;17.42;8.52;;;18.40;95.30;;;;;;5362823;26;20032;-74
2024/04/09 00:37:51;;;;;;;14.35;9.00;;;18.40;95.40;;;;;;5374155;26;20016;-74
2024/04/09 00:40:19;;;;;;;14.65;8.55;;;18.40;95.50;;;;;;5373380;26;20080;-74
2024/04/09 00:42:49;;;;;;;12.57;7.53;;;18.40;95.50;;;;;;5375818;26;20000;-74
2024/04/09 00:45:16;;;;;;;14.90;8.50;;;18.30;95.60;;;;;;5371045;26;20009;-74
2024/04/09 00:47:43;;;;;;;18.10;10.02;;;18.30;95.50;;;;;;5372727;26;20103;-74
2024/04/09 00:50:11;;;;;;;16.58;9.30;;;18.30;95.60;;;;;;5376122;26;20000;-74
2024/04/09 00:52:39;;;;;;;19.13;9.38;;;18.30;95.70;;;;;;5372049;26;20019;-74
2024/04/09 00:55:08;;;;;;;18.40;9.85;;;18.40;95.70;;;;;;5375205;26;20008;-74
2024/04/09 00:57:35;;;;;;;20.23;9.73;;;18.40;95.70;;;;;;5369720;26;20073;-74
2024/04/09 01:00:05;;;;;;;14.13;9.40;;;18.40;95.60;;;;;;5372628;26;20015;-74
2024/04/09 01:02:32;;;;;;;14.77;9.10;;;18.40;95.70;;;;;;5368838;26;20601;-74
2024/04/09 01:04:58;;;;;;;23.83;10.32;;;18.40;95.60;;;;;;5373921;26;20473;-74
2024/04/09 01:07:25;;;;;;;14.75;9.20;;;18.50;95.50;;;;;;5368422;26;19996;-74
2024/04/09 01:09:50;;;;;;;20.60;9.75;;;18.50;95.40;;;;;;5374353;26;20000;-74
2024/04/09 01:12:16;;;;;;;18.65;10.85;;;18.40;95.60;;;;;;5376173;26;20324;-74
2024/04/09 01:14:42;;;;;;;20.15;8.75;;;18.30;95.80;;;;;;5348536;26;20011;-74
2024/04/09 01:17:08;;;;;;;16.83;9.85;;;18.30;95.80;;;;;;5371299;26;20018;-74
2024/04/09 01:19:34;;;;;;;19.05;9.73;;;18.30;95.50;;;;;;5366930;26;20499;-74
2024/04/09 01:22:00;;;;;;;15.57;8.27;;;18.40;95.30;;;;;;5375037;26;20073;-75
2024/04/09 01:24:25;;;;;;;19.70;8.90;;;18.50;95.00;;;;;;5373126;26;20004;-75
2024/04/09 01:26:51;;;;;;;17.27;9.60;;;18.50;94.70;;;;;;5372108;26;20069;-74
2024/04/09 01:29:17;;;;;;;15.95;9.43;;;18.60;94.60;;;;;;5369217;26;20044;-74
2024/04/09 01:31:43;;;;;;;17.98;10.40;;;18.70;94.70;;;;;;5373668;26;20031;-74
2024/04/09 01:34:09;;;;;;;16.88;10.93;;;18.70;94.50;;;;;;5372372;26;20002;-74
2024/04/09 01:36:36;;;;;;;25.15;10.70;;;18.80;94.60;;;;;;5373292;26;20069;-74
2024/04/09 01:39:02;;;;;;;16.67;10.95;;;18.80;94.60;;;;;;5375901;26;20000;-74
2024/04/09 01:41:27;;;;;;;17.60;10.90;;;18.90;94.70;;;;;;5377237;26;20010;-74
2024/04/09 01:43:53;;;;;;;18.02;10.25;;;18.90;94.70;;;;;;5375756;26;20000;-74
2024/04/09 01:46:19;;;;;;;18.98;11.02;;;18.80;94.80;;;;;;5378001;26;20015;-74
2024/04/09 01:48:45;;;;;;;19.02;10.98;;;18.80;94.80;;;;;;5377075;26;19996;-74
2024/04/09 01:51:11;;;;;;;17.55;10.68;;;18.80;94.90;;;;;;5366944;26;20435;-74
2024/04/09 01:53:40;;;;;;;21.20;11.02;;;18.80;95.00;;;;;;5377215;26;20000;-74
2024/04/09 01:56:06;;;;;;;20.40;11.68;;;18.80;95.00;;;;;;5375171;26;20004;-74
2024/04/09 01:58:31;;;;;;;19.63;11.88;;;18.80;95.00;;;;;;5369396;26;20032;-74
2024/04/09 02:00:57;;;;;;;24.10;11.73;;;18.80;95.10;;;;;;5376330;26;20000;-74
2024/04/09 02:03:25;;;;;;;18.35;11.13;;;18.80;95.10;;;;;;5377048;26;20019;-74
2024/04/09 02:05:51;;;;;;;24.85;11.25;;;18.80;95.10;;;;;;5374158;26;20379;-74
2024/04/09 02:08:17;;;;;;;17.10;11.10;;;18.70;95.10;;;;;;5378271;26;20916;-74
2024/04/09 02:10:42;;;;;;;20.50;11.90;;;18.80;95.20;;;;;;5373424;26;20000;-74
2024/04/09 02:13:08;;;;;;;19.20;11.57;;;18.80;95.10;;;;;;5376606;26;20077;-74
2024/04/09 02:15:34;;;;;;;17.80;11.13;;;18.70;95.10;;;;;;5355736;26;19996;-74
2024/04/09 02:18:01;;;;;;;19.05;11.98;;;18.70;95.10;;;;;;5371878;26;20336;-74
2024/04/09 02:20:29;;;;;;;20.95;12.25;;;18.70;95.20;;;;;;5371809;26;20439;-74
2024/04/09 02:22:54;;;;;;;19.02;11.52;;;18.70;95.30;;;;;;5373034;26;19996;-74
2024/04/09 02:25:21;;;;;;;20.48;12.10;;;18.70;95.30;;;;;;5376845;26;20004;-74
2024/04/09 02:27:47;;;;;;;22.65;13.23;;;18.70;95.30;;;;;;5376104;26;20019;-74
2024/04/09 02:30:14;;;;;;;19.08;13.13;;;18.60;95.30;;;;;;5376436;26;20343;-74
2024/04/09 02:32:40;;;;;;;20.33;12.50;;;18.70;95.40;;;;;;5375845;26;20015;-74
2024/04/09 02:35:10;;;;;;;23.50;12.57;;;18.70;95.30;;;;;;5375781;26;20419;-74
2024/04/09 02:37:36;;;;;;;19.58;12.45;;;18.70;95.30;;;;;;5375449;26;20050;-74
2024/04/09 02:40:04;;;;;;;21.08;12.70;;;18.80;95.30;;;;;;5376272;26;20015;-74
2024/04/09 02:42:30;;;;;;;19.75;11.88;;;18.80;95.30;;;;;;5373268;26;20008;-74
2024/04/09 02:44:55;;;;;;;20.17;12.00;;;18.90;95.20;;;;;;5371175;26;20000;-74
2024/04/09 02:47:21;;;;;;;21.40;12.57;;;18.90;95.10;;;;;;5371141;26;20009;-74
2024/04/09 02:49:47;;;;;;;19.73;12.70;;;19.00;95.10;;;;;;5375086;26;20410;-74
2024/04/09 02:52:13;;;;;;;18.27;11.65;;;18.90;95.10;;;;;;5375882;26;20004;-74
2024/04/09 02:54:41;;;;;;;17.83;11.85;;;19.00;95.00;;;;;;5371815;26;20012;-74
2024/04/09 02:57:07;;;;;;;21.73;12.27;;;19.00;95.00;;;;;;5377682;26;20397;-74
2024/04/09 02:59:33;;;;;;;21.05;12.10;;;18.90;94.90;;;;;;5371226;26;20004;-74
2024/04/09 03:01:59;;;;;;;21.92;13.05;;;18.90;94.90;;;;;;5377310;26;20320;-74
2024/04/09 03:04:25;;;;;;;20.65;12.48;;;18.90;95.00;;;;;;5372517;26;22098;-74
2024/04/09 03:06:50;;;;;;;18.52;11.48;;;19.00;95.00;;;;;;5375605;26;20028;-74
2024/04/09 03:09:16;;;;;;;21.58;12.23;;;19.00;94.70;;;;;;5376891;26;20004;-74
2024/04/09 03:11:42;;;;;;;21.95;11.85;;;19.00;94.30;;;;;;5376530;26;20439;-74
2024/04/09 03:14:11;;;;;;;24.17;12.35;;;18.90;94.50;;;;;;5357087;26;19996;-74
2024/04/09 03:16:37;;;;;;;18.40;11.35;;;18.90;94.30;;;;;;5378068;26;20000;-74
2024/04/09 03:19:05;;;;;;;21.20;12.48;;;19.00;94.30;;;;;;5371339;26;20081;-74
2024/04/09 03:21:31;;;;;;;21.60;11.63;;;19.00;94.00;;;;;;5375770;26;20015;-74
2024/04/09 03:23:56;;;;;;;19.70;11.23;;;19.00;94.00;;;;;;5373047;26;20004;-74
2024/04/09 03:26:22;;;;;;;17.83;10.68;;;18.90;93.80;;;;;;5376110;26;20012;-74
2024/04/09 03:28:48;;;;;;;18.08;11.73;;;18.90;93.70;;;;;;5374272;26;20055;-74
2024/04/09 03:31:13;;;;;;;19.60;11.85;;;18.90;93.70;;;;;;5375200;26;20000;-74
2024/04/09 03:33:39;;;;;;;19.63;11.38;;;18.90;93.80;;;;;;5375045;26;20004;-74
2024/04/09 03:36:07;;;;;;;23.02;11.52;;;18.90;93.70;;;;;;5374547;26;20012;-74
2024/04/09 03:38:33;;;;;;;20.77;11.45;;;18.90;93.70;;;;;;5374406;26;20016;-73
2024/04/09 03:41:06;;;;;;;22.85;11.80;;;18.80;93.60;;;;;;5374144;26;20479;-74
2024/04/09 03:43:32;;;;;;;;;;;18.80;93.80;;;;;;5372112;26;20000;-74
2024/04/09 03:46:08;;;;;;;16.23;10.05;;;18.80;93.60;;;;;;5373480;26;19958;-74
2024/04/09 03:48:45;;;;;;;15.52;9.70;;;18.80;93.60;;;;;;5374227;26;20004;-74
2024/04/09 03:51:17;;;;;;;15.63;10.02;;;18.80;93.70;;;;;;5370351;26;20099;-73
2024/04/09 03:53:44;;;;;;;24.35;9.48;;;18.70;93.70;;;;;;5371372;26;20028;-73
2024/04/09 03:56:10;;;;;;;17.23;8.77;;;18.70;93.70;;;;;;5373997;26;20000;-73
2024/04/09 03:58:43;;;;;;;13.95;9.45;;;18.70;93.70;;;;;;5373485;26;20080;-75
2024/04/09 04:01:10;;;;;;;15.18;8.90;;;18.70;93.80;;;;;;5371755;26;19996;-74
2024/04/09 04:03:41;;;;;;;20.80;9.80;;;18.60;93.90;;;;;;5376364;26;20039;-74
2024/04/09 04:06:07;;;;;;;20.40;7.53;;;18.50;94.00;;;;;;5373567;26;20012;-75
2024/04/09 04:08:38;;;;;;;14.32;6.90;;;18.50;94.10;;;;;;5375139;26;19996;-74
2024/04/09 04:11:06;;;;;;;12.63;5.97;;;18.40;94.30;;;;;;5371910;26;20000;-75
2024/04/09 04:13:32;;;;;;;13.90;5.55;;;18.30;94.50;;;;;;5372853;26;20008;-75
2024/04/09 04:15:59;;;;;;;14.60;5.35;;;18.30;94.60;;;;;;5371416;26;20008;-75
2024/04/09 04:18:24;;;;;;;12.88;6.88;;;18.30;94.80;;;;;;5374221;26;20000;-75
2024/04/09 04:20:54;;;;;;;15.05;5.07;;;18.20;94.80;;;;;;5373821;26;20000;-75
2024/04/09 04:23:20;;;;;;;10.02;5.60;;;18.20;94.80;;;;;;5372395;26;20020;-75
2024/04/09 04:25:53;;;;;;;12.68;6.78;;;18.20;94.90;;;;;;5374638;26;20333;-75
2024/04/09 04:28:19;;;;;;;5.25;3.03;;;18.20;95.00;;;;;;5375882;26;20016;-75
2024/04/09 04:30:45;;;;;;;14.32;6.15;;;18.30;95.00;;;;;;5363251;26;20489;-75
2024/04/09 04:33:10;;;;;;;11.95;5.03;;;18.20;95.10;;;;;;5374705;26;20439;-74
2024/04/09 04:35:36;;;;;;;13.98;5.20;;;18.20;95.10;;;;;;5366376;26;20036;-74
2024/04/09 04:38:03;;;;;;;11.63;5.22;;;18.10;95.20;;;;;;5358868;26;20004;-75
2024/04/09 04:40:29;;;;;;;9.35;5.15;;;18.10;95.20;;;;;;5372308;26;20015;-75
2024/04/09 04:42:54;;;;;;;9.77;4.60;;;18.10;95.10;;;;;;5359272;26;20004;-75
2024/04/09 04:45:20;;;;;;;13.15;5.80;;;18.20;95.10;;;;;;5363260;26;20052;-75
2024/04/09 04:47:46;;;;;;;9.98;5.22;;;18.20;95.10;;;;;;5374864;26;20466;-74
2024/04/09 04:50:12;;;;;;;8.35;3.88;;;18.20;95.10;;;;;;5371910;26;20047;-74
2024/04/09 04:52:37;;;;;;;4.82;2.97;;;18.20;95.10;;;;;;5370775;26;20012;-74
2024/04/09 04:55:03;;;;;;;7.32;3.65;;;18.10;95.20;;;;;;5372323;26;20032;-71
2024/04/09 04:57:29;;;;;;;7.10;2.08;;;18.10;95.30;;;;;;5373549;26;20012;-75
2024/04/09 04:59:56;;;;;;;4.07;1.77;;;18.00;95.40;;;;;;5363908;26;20521;-74
2024/04/09 05:02:22;;;;;;;6.88;2.65;;;18.00;95.60;;;;;;5365998;26;20015;-75
2024/04/09 05:04:53;;;;;;;2.45;1.80;;;17.90;95.70;;;;;;5371575;26;20392;-74
2024/04/09 05:07:19;;;;;;;3.80;2.47;;;17.80;95.80;;;;;;5372105;26;20012;-75
2024/04/09 05:09:45;;;;;;;2.92;1.55;;;17.80;95.90;;;;;;5373851;26;20471;-75
2024/04/09 05:12:11;;;;;;;8.95;2.55;;;17.70;96.00;;;;;;5375583;26;20004;-74
2024/04/09 05:14:36;;;;;;;8.23;2.72;;;17.70;96.20;;;;;;5376070;26;20004;-75
2024/04/09 05:17:02;;;;;;;4.00;2.50;;;17.70;96.30;;;;;;5375574;26;20000;-75
2024/04/09 05:19:28;;;;;;;3.80;1.88;;;17.70;96.40;;;;;;5377731;26;19996;-75
2024/04/09 05:21:54;;;;;;;7.03;3.38;;;17.60;96.40;;;;;;5373741;26;20018;-75
2024/04/09 05:24:23;;;;;;;4.80;2.15;;;17.60;96.50;;;;;;5378252;26;20081;-75
2024/04/09 05:26:48;;;;;;;9.07;4.15;;;17.60;96.50;;;;;;5374817;26;20008;-75
2024/04/09 05:29:14;;;;;;;15.23;4.07;;;17.50;96.50;;;;;;5376289;26;20000;-74
2024/04/09 05:31:41;;;;;;;5.43;3.25;;;17.70;96.50;;;;;;5374711;26;20007;-75
2024/04/09 05:34:07;;;;;;;3.10;1.65;;;17.70;96.40;;;;;;5369054;26;20000;-75
2024/04/09 05:36:33;;;;;;;3.70;1.58;;;17.80;96.30;;;;;;5374821;26;22258;-74
2024/04/09 05:38:59;;;;;;;2.03;1.45;;;17.80;96.20;;;;;;5377227;26;20000;-74
2024/04/09 05:41:25;;;;;;;16.02;3.58;;;17.80;96.10;;;;;;5377173;26;20065;-75
2024/04/09 05:43:50;;;;;;;4.25;2.30;;;17.80;96.10;;;;;;5373713;26;20004;-75
2024/04/09 05:46:16;;;;;;;3.78;1.98;;;17.80;96.10;;;;;;5362528;26;20605;-75
2024/04/09 05:48:41;;;;;;;1.75;1.15;;;17.70;95.90;;;;;;5358745;26;20008;-75
2024/04/09 05:51:07;;;;;;;2.40;1.35;;;17.60;95.90;;;;;;5374516;26;20008;-75
2024/04/09 05:53:33;;;;;;;6.13;2.10;;;17.70;95.90;;;;;;5375794;26;20044;-75
2024/04/09 05:55:58;;;;;;;4.13;1.55;;;17.60;95.40;;;;;;5374635;26;20447;-75
2024/04/09 05:58:24;;;;;;;4.55;1.65;;;17.50;95.30;;;;;;5372623;26;20011;-74
2024/04/09 06:00:53;;;;;;;1.48;1.05;;;17.40;95.10;;;;;;5371554;26;20343;-74
2024/04/09 06:03:19;;;;;;;0.70;0.70;;;17.30;95.20;;;;;;5375927;26;20000;-74
2024/04/09 06:05:44;;;;;;;2.13;1.13;;;17.30;95.20;;;;;;5371462;26;20052;-74
2024/04/09 06:08:10;;;;;;;9.23;1.05;;;17.20;95.20;;;;;;5373163;26;20005;-75
2024/04/09 06:10:35;;;;;;;1.48;0.90;;;17.20;95.20;;;;;;5374929;26;20052;-75
2024/04/09 06:13:01;;;;;;;1.00;0.90;;;17.10;95.30;;;;;;5375323;26;20019;-75
2024/04/09 06:15:27;;;;;;;1.48;1.02;;;17.00;95.30;;;;;;5372463;26;20012;-74
2024/04/09 06:17:52;;;;;;;6.43;1.38;;;17.10;95.30;;;;;;5377050;26;20019;-74
2024/04/09 06:20:19;;;;;;;2.75;1.00;;;17.10;95.20;;;;;;5370941;26;20004;-74
2024/04/09 06:22:44;;;;;;;3.83;1.20;;;17.00;94.90;;;;;;5366378;26;20008;-74
2024/04/09 06:25:10;;;;;;;2.78;0.90;;;17.00;94.90;;;;;;5374777;26;20015;-74
2024/04/09 06:27:36;;;;;;;4.90;1.40;;;16.90;95.00;;;;;;5378022;26;20015;-74
2024/04/09 06:30:02;;;;;;;7.95;1.35;;;16.80;94.80;;;;;;5373819;26;20082;-74
2024/04/09 06:32:27;;;;;;;1.73;1.15;;;16.70;94.60;;;;;;5374641;26;20012;-74
2024/04/09 06:34:53;;;;;;;2.17;1.17;;;16.70;94.70;;;;;;5373849;26;20015;-74
2024/04/09 06:37:19;;;;;;;4.95;1.05;;;16.70;94.90;;;;;;5360243;26;20509;-74
2024/04/09 06:39:45;;;;;;;4.38;0.80;;;16.60;94.80;;;;;;5361041;26;20004;-74
2024/04/09 06:42:11;;;;;;;6.13;1.10;;;16.60;95.00;;;;;;5372703;26;20069;-74
2024/04/09 06:44:37;;;;;;;3.55;1.17;;;16.60;94.70;;;;;;5372987;26;19996;-74
2024/04/09 06:47:02;;;;;;;0.75;0.60;;;16.60;94.80;;;;;;5369915;26;20020;-74
2024/04/09 06:49:28;;;;;;;4.38;1.73;;;16.60;94.80;;;;;;5377062;26;20328;-74
2024/04/09 06:51:54;;;;;;;2.28;0.65;;;16.70;95.00;;;;;;5375100;26;20015;-74
2024/04/09 06:54:21;;;;;;;2.85;1.17;;;16.70;95.10;;;;;;5374196;26;20004;-74
2024/04/09 06:56:47;;;;;;;1.85;0.82;;;16.60;94.90;;;;;;5373822;26;20008;-74
2024/04/09 06:59:13;;;;;;;1.20;0.70;;;16.70;94.90;;;;;;5377120;26;20030;-74
2024/04/09 07:01:38;;;;;;;7.50;2.80;;;16.60;94.80;;;;;;5370883;26;19997;-74
2024/04/09 07:04:04;;;;;;;4.93;0.45;;;16.70;94.90;;;;;;5370941;26;20008;-74
2024/04/09 07:06:30;;;;;;;2.50;1.33;;;16.60;94.90;;;;;;5357653;26;20010;-74
2024/04/09 07:09:00;;;;;;;6.63;1.30;;;16.70;94.90;;;;;;5377083;26;20098;-74
2024/04/09 07:11:26;;;;;;;2.97;1.25;;;16.70;95.10;;;;;;5376098;26;20095;-74
2024/04/09 07:13:51;;;;;;;3.35;1.27;;;16.70;95.00;;;;;;5374855;26;20398;-74
2024/04/09 07:16:17;;;;;;;1.23;1.08;;;16.70;94.90;;;;;;5377430;26;20002;-74
2024/04/09 07:18:42;;;;;;;0.90;0.45;;;16.80;94.70;;;;;;5368123;26;21401;-74
2024/04/09 07:21:08;;;;;;;6.32;2.10;;;16.80;94.70;;;;;;5360977;26;20012;-74
2024/04/09 07:23:34;;;;;;;3.78;0.85;;;16.70;94.50;;;;;;5367453;26;20081;-74
2024/04/09 07:25:59;;;;;;;2.08;1.08;;;16.70;94.50;;;;;;5376968;26;20036;-74
2024/04/09 07:28:25;;;;;;;2.92;0.60;;;16.80;94.70;;;;;;5376349;26;20479;-74
2024/04/09 07:30:51;;;;;;;6.13;1.08;;;16.80;94.70;;;;;;5374835;26;20464;-74
2024/04/09 07:33:16;;;;;;;2.08;1.30;;;16.80;94.50;;;;;;5374997;26;20016;-74
2024/04/09 07:35:42;;;;;;;3.90;1.20;;;16.90;94.50;;;;;;5367667;26;20510;-74
2024/04/09 07:38:08;;;;;;;0.75;0.55;;;16.90;94.50;;;;;;5375025;26;20004;-74
2024/04/09 07:40:34;;;;;;;6.63;1.35;;;16.90;94.30;;;;;;5374977;26;20074;-74
2024/04/09 07:42:59;;;;;;;3.05;0.95;;;16.90;94.20;;;;;;5374480;26;20015;-74
2024/04/09 07:45:26;;;;;;;10.43;1.67;;;16.90;94.10;;;;;;5362927;26;20000;-74
2024/04/09 07:47:53;;;;;;;1.67;0.57;;;16.80;94.00;;;;;;5371485;26;20015;-74
2024/04/09 07:50:19;;;;;;;4.68;1.23;;;16.80;94.00;;;;;;5376094;26;20011;-74
2024/04/09 07:52:45;;;;;;;15.88;1.45;;;16.80;94.00;;;;;;5374576;26;20106;-74
2024/04/09 07:55:11;;;;;;;3.85;1.20;;;16.80;93.90;;;;;;5374570;26;20468;-74
2024/04/09 07:57:42;;;;;;;8.45;1.23;;;16.80;94.00;;;;;;5376150;26;20008;-74
2024/04/09 08:00:14;;;;;;;6.68;1.63;;;16.70;94.20;;;;;;5374301;26;20015;-74
2024/04/09 08:02:43;;;;;;;2.92;1.10;;;16.70;94.10;;;;;;5361806;26;20004;-74
2024/04/09 08:05:09;;;;;;;6.38;1.08;;;16.70;94.10;;;;;;5374752;26;20313;-74
2024/04/09 08:07:39;;;;;;;5.85;1.13;;;16.70;94.10;;;;;;5371260;26;20000;-74
2024/04/09 08:10:11;;;;;;;1.55;1.20;;;16.70;93.90;;;;;;5375038;26;20478;-74
2024/04/09 08:12:46;;;;;;;6.85;1.50;;;16.70;94.00;;;;;;5375766;26;20023;-74
2024/04/09 08:15:12;;;;;;;4.75;1.60;;;16.70;94.00;;;;;;5374698;26;20024;-74
2024/04/09 08:17:39;;;;;;;5.32;1.60;;;16.70;94.10;;;;;;5373173;26;20019;-74
2024/04/09 08:20:07;;;;;;;1.85;0.85;;;16.70;94.00;;;;;;5373954;26;20054;-74
2024/04/09 08:22:34;;;;;;;15.85;1.73;;;16.70;93.80;;;;;;5374963;26;20016;-74
2024/04/09 08:25:00;;;;;;;3.55;1.35;;;16.80;93.90;;;;;;5374052;26;20000;-74
2024/04/09 08:27:26;;;;;;;7.43;2.42;;;16.80;93.90;;;;;;5376494;26;20031;-74
2024/04/09 08:29:52;;;;;;;5.97;1.70;;;16.80;94.00;;;;;;5373411;26;20444;-74
2024/04/09 08:32:18;;;;;;;6.97;2.20;;;16.90;93.90;;;;;;5375756;26;20081;-74
2024/04/09 08:34:44;;;;;;;13.32;2.40;;;16.90;94.00;;;;;;5373931;26;20000;-74
2024/04/09 08:37:10;;;;;;;8.98;2.40;;;17.00;94.00;;;;;;5374303;26;20018;-74
2024/04/09 08:39:36;;;;;;;11.63;1.83;;;17.00;93.90;;;;;;5366885;26;20041;-74
2024/04/09 08:42:03;;;;;;;13.30;2.25;;;17.10;93.90;;;;;;5370867;26;20551;-74
2024/04/09 08:44:30;;;;;;;8.48;1.58;;;17.10;93.90;;;;;;5374368;26;20379;-74
2024/04/09 08:46:58;;;;;;;5.82;1.98;;;17.20;93.90;;;;;;5371563;26;20019;-74
2024/04/09 08:49:25;;;;;;;1.92;0.55;;;17.20;93.80;;;;;;5374490;26;20001;-74
2024/04/09 08:51:54;;;;;;;3.83;0.75;;;17.20;93.70;;;;;;5373080;26;20001;-74
2024/04/09 08:54:19;;;;;;;5.00;1.20;;;17.20;93.60;;;;;;5363202;26;20405;-74
2024/04/09 08:56:46;;;;;;;3.63;1.30;;;17.20;93.50;;;;;;5359549;26;20568;-74
2024/04/09 08:59:12;;;;;;;9.15;1.60;;;17.10;93.40;;;;;;5374860;26;20004;-74
2024/04/09 09:01:37;;;;;;;1.88;1.27;;;17.00;93.20;;;;;;5373156;26;20050;-74
2024/04/09 09:04:04;;;;;;;4.78;2.08;;;16.90;93.50;;;;;;5363999;26;20001;-74
2024/04/09 09:06:40;;;;;;;3.85;1.88;;;16.80;93.60;;;;;;5364977;26;20004;-74
2024/04/09 09:09:09;;;;;;;3.60;1.63;;;16.80;93.60;;;;;;5373628;26;20339;-74
2024/04/09 09:11:35;;;;;;;6.07;1.95;;;16.80;93.60;;;;;;5372255;26;20000;-74
2024/04/09 09:14:04;;;;;;;2.25;1.08;;;16.70;93.70;;;;;;5373870;26;20073;-74
2024/04/09 09:16:30;;;;;;;1.00;0.85;;;16.70;93.80;;;;;;5375604;26;20474;-74
2024/04/09 09:19:04;;;;;;;5.65;1.83;;;16.70;93.80;;;;;;5371749;26;20000;-74
2024/04/09 09:21:29;;;;;;;7.70;1.55;;;16.60;93.70;;;;;;5371707;26;20082;-74
2024/04/09 09:23:58;;;;;;;4.85;1.50;;;16.70;93.60;;;;;;5374775;26;20359;-74
2024/04/09 09:26:24;;;;;;;4.35;1.52;;;16.60;93.70;;;;;;5372728;26;20008;-74
2024/04/09 09:29:01;;;;;;;4.18;1.65;;;16.60;93.60;;;;;;5373609;26;20946;-74
2024/04/09 09:31:30;;;;;;;5.40;1.98;;;16.60;93.80;;;;;;5365046;26;20000;-74
2024/04/09 09:33:59;;;;;;;3.33;1.73;;;16.60;93.70;;;;;;5370896;26;20012;-73
2024/04/09 09:36:25;;;;;;;3.67;1.58;;;16.60;93.60;;;;;;5374754;26;20094;-75
2024/04/09 09:38:53;;;;;;;5.75;2.08;;;16.60;93.60;;;;;;5369924;26;20458;-74
2024/04/09 09:41:19;;;;;;;5.85;2.63;;;16.60;93.80;;;;;;5372840;26;20015;-74
2024/04/09 09:43:46;;;;;;;5.07;2.42;;;16.60;93.80;;;;;;5372814;26;20012;-74
2024/04/09 09:46:14;;;;;;;7.68;2.60;;;16.60;93.70;;;;;;5374260;26;20001;-74
2024/04/09 09:48:42;;;;;;;3.72;1.58;;;16.60;93.70;;;;;;5371110;26;20887;-74
2024/04/09 09:51:07;;;;;;;5.38;2.38;;;16.70;93.70;;;;;;5374545;26;20438;-75
2024/04/09 09:53:33;;;;;;;4.60;2.35;;;16.70;93.70;;;;;;5367862;26;20004;-75
2024/04/09 09:56:02;;;;;;;7.90;2.55;;;16.70;93.60;;;;;;5373492;26;20338;-74
2024/04/09 09:58:32;;;;;;;3.92;2.13;;;16.70;93.70;;;;;;5372677;26;19996;-74
2024/04/09 10:00:59;;;;;;;7.63;2.08;;;16.70;93.90;;;;;;5377267;26;20004;-74
2024/04/09 10:03:25;;;;;;;4.28;1.77;;;16.80;94.00;;;;;;5376015;26;20471;-74
2024/04/09 10:05:52;;;;;;;3.25;1.85;;;16.80;93.90;;;;;;5375571;26;20004;-74
2024/04/09 10:08:21;;;;;;;7.47;2.08;;;16.80;93.80;;;;;;5375956;26;20000;-75
2024/04/09 10:10:49;;;;;;;4.35;1.65;;;16.80;93.40;;;;;;5372802;26;20004;-74
2024/04/09 10:13:23;;;;;;;3.65;2.10;;;16.80;93.10;;;;;;5376762;26;20001;-75
2024/04/09 10:15:49;;;;;;;1.58;1.45;;;16.90;93.30;;;;;;5375917;26;20010;-74
2024/04/09 10:18:47;;;;;;;2.45;1.67;;;16.90;93.30;;;;;;5376014;26;20004;-74
2024/04/09 10:21:23;;;;;;;3.78;1.80;;;16.90;93.20;;;;;;5387474;26;20447;-74
2024/04/09 10:23:49;;;;;;;5.45;1.98;;;16.90;93.50;;;;;;5376272;26;20368;-75
2024/04/09 10:26:15;;;;;;;2.60;1.80;;;17.00;92.90;;;;;;5373318;26;20008;-75
2024/04/09 10:28:40;;;;;;;1.75;1.17;;;16.90;92.20;;;;;;5371960;26;20012;-74
2024/04/09 10:31:13;;;;;;;2.53;1.33;;;17.00;92.30;;;;;;5375471;26;20342;-75
2024/04/09 10:33:40;;;;;;;2.08;1.38;;;17.00;92.20;;;;;;5374721;26;20015;-75
2024/04/09 10:36:08;;;;;;;2.80;1.38;;;17.00;91.90;;;;;;5376523;26;20017;-75
2024/04/09 10:38:37;;;;;;;5.38;1.33;;;17.00;91.50;;;;;;5375352;26;20025;-75
2024/04/09 10:41:03;;;;;;;2.42;1.52;;;17.00;91.30;;;;;;5360319;26;20356;-75
2024/04/09 10:43:30;;;;;;;5.38;1.42;;;17.10;90.80;;;;;;5371403;26;20012;-75
2024/04/09 10:45:56;;;;;;;1.40;1.05;;;17.00;90.60;;;;;;5377292;26;20012;-75
2024/04/09 10:48:22;;;;;;;1.92;1.25;;;17.00;90.60;;;;;;5374444;26;20102;-75
2024/04/09 10:50:48;;;;;;;3.85;1.38;;;17.00;90.30;;;;;;5376589;26;20443;-75
2024/04/09 10:53:15;;;;;;;5.35;1.88;;;17.00;90.00;;;;;;5375436;26;20018;-75
2024/04/09 10:55:40;;;;;;;1.48;1.13;;;17.00;90.00;;;;;;5375276;26;20440;-75
2024/04/09 10:58:06;;;;;;;2.05;1.20;;;16.90;88.20;;;;;;5373795;26;20073;-75
2024/04/09 11:00:32;;;;;;;7.20;1.80;;;16.90;88.10;;;;;;5378312;26;20335;-75
2024/04/09 11:02:58;;;;;;;1.95;1.33;;;16.90;88.50;;;;;;5376277;26;20495;-75
2024/04/09 11:05:24;;;;;;;4.20;1.70;;;16.90;88.30;;;;;;5375091;26;20015;-75
2024/04/09 11:07:50;;;;;;;4.63;1.48;;;16.90;88.30;;;;;;5372841;26;20000;-74
2024/04/09 11:10:19;;;;;;;2.22;1.08;;;17.00;88.90;;;;;;5375969;26;20000;-74
2024/04/09 11:12:48;;;;;;;3.17;1.17;;;16.90;86.90;;;;;;5374647;26;20000;-75
2024/04/09 11:15:15;;;;;;;3.83;1.27;;;16.90;85.80;;;;;;5344283;26;20016;-75
2024/04/09 11:17:41;;;;;;;1.30;1.08;;;16.80;85.50;;;;;;5376499;26;20485;-74
2024/04/09 11:20:12;;;;;;;10.75;1.42;;;16.90;84.70;;;;;;5375728;26;20456;-75
2024/04/09 11:22:41;;;;;;;6.28;1.10;;;16.90;85.50;;;;;;5373616;26;19996;-74
2024/04/09 11:25:14;;;;;;;3.40;0.85;;;16.90;84.60;;;;;;5373906;26;20011;-75
2024/04/09 11:27:40;;;;;;;;;;;16.90;85.60;;;;;;5373912;26;20015;-74
2024/04/09 11:30:11;;;;;;;4.05;1.45;;;16.90;85.30;;;;;;5377072;26;19925;-74
2024/04/09 11:32:39;;;;;;;1.95;0.95;;;17.00;85.70;;;;;;5370803;26;20004;-75
2024/04/09 11:35:17;;;;;;;1.65;1.02;;;17.00;85.30;;;;;;5354530;26;20346;-75
2024/04/09 11:37:57;;;;;;;2.72;1.20;;;17.00;86.50;;;;;;5374185;26;20018;-75
2024/04/09 11:40:31;;;;;;;1.73;1.23;;;17.00;86.70;;;;;;5376654;26;20000;-75
2024/04/09 11:42:58;;;;;;;3.42;0.90;;;17.10;85.80;;;;;;5371082;26;20028;-75
2024/04/09 11:45:35;;;;;;;3.75;0.95;;;17.10;86.70;;;;;;5376129;26;20016;-75
2024/04/09 11:48:02;;;;;;;8.90;1.20;;;17.10;86.70;;;;;;5355774;26;20015;-75
2024/04/09 11:50:29;;;;;;;6.38;1.58;;;17.20;87.40;;;;;;5370575;26;20460;-74
2024/04/09 11:52:55;;;;;;;1.10;1.00;;;17.20;86.60;;;;;;5374009;26;20000;-75
2024/04/09 11:55:20;;;;;;;2.42;0.90;;;17.20;86.00;;;;;;5371282;26;20000;-74
2024/04/09 11:57:46;;;;;;;6.30;0.90;;;17.20;85.80;;;;;;5375726;26;20069;-75
2024/04/09 12:00:13;;;;;;;7.13;1.70;;;17.10;84.50;;;;;;5371740;26;20004;-75
2024/04/09 12:02:40;;;;;;;3.67;1.73;;;17.10;84.20;;;;;;5375093;26;20343;-75
2024/04/09 12:05:06;;;;;;;3.13;1.23;;;17.10;83.10;;;;;;5376151;26;20004;-75
2024/04/09 12:07:32;;;;;;;1.52;1.10;;;17.10;84.10;;;;;;5376479;26;20000;-74
2024/04/09 12:09:57;;;;;;;5.93;1.65;;;17.00;83.00;;;;;;5366049;26;20005;-75
2024/04/09 12:12:23;;;;;;;8.70;1.48;;;17.00;83.20;;;;;;5370835;26;20030;-75
2024/04/09 12:14:49;;;;;;;4.05;1.38;;;17.10;83.20;;;;;;5373503;26;20000;-74
2024/04/09 12:17:14;;;;;;;1.40;0.85;;;17.00;83.00;;;;;;5375718;26;20000;-75
2024/04/09 12:19:40;;;;;;;1.08;0.85;;;17.10;82.90;;;;;;5375458;26;20004;-74
2024/04/09 12:22:07;;;;;;;6.10;0.90;;;17.10;83.10;;;;;;5372844;26;20001;-75
2024/04/09 12:24:32;;;;;;;1.23;0.95;;;17.10;83.90;;;;;;5375582;26;20036;-75
2024/04/09 12:26:58;;;;;;;1.00;0.88;;;17.10;83.50;;;;;;5373364;26;20004;-74
2024/04/09 12:29:24;;;;;;;2.20;0.73;;;17.10;83.00;;;;;;5376197;26;20004;-75
2024/04/09 12:31:50;;;;;;;1.88;0.80;;;17.20;83.50;;;;;;5374212;26;20085;-75
2024/04/09 12:34:19;;;;;;;2.55;1.10;;;17.20;82.90;;;;;;5374828;26;20393;-75
2024/04/09 12:36:45;;;;;;;2.08;1.17;;;17.10;82.10;;;;;;5372800;26;20439;-74
2024/04/09 12:39:10;;;;;;;2.17;1.05;;;17.10;82.90;;;;;;5363235;26;20015;-74